createdAt,value
2017-11-01T00:00:13.649Z,96.70
2017-11-01T00:02:39.911Z,96.70
2017-11-01T00:05:06.903Z,96.60
2017-11-01T00:07:33.150Z,96.60
2017-11-01T00:09:59.403Z,96.60
2017-11-01T00:12:26.409Z,96.60
2017-11-01T00:14:52.697Z,96.60
2017-11-01T00:17:18.955Z,96.70
2017-11-01T00:19:45.181Z,96.70
2017-11-01T00:22:11.421Z,96.80
2017-11-01T00:24:37.645Z,96.80
2017-11-01T00:27:04.117Z,96.80
2017-11-01T00:29:31.085Z,97.00
2017-11-01T00:31:57.348Z,97.00
2017-11-01T00:34:23.584Z,97.20
2017-11-01T00:36:49.855Z,97.20
2017-11-01T00:39:16.856Z,97.20
2017-11-01T00:41:43.121Z,97.20
2017-11-01T00:44:10.104Z,97.00
2017-11-01T00:46:36.351Z,97.00
2017-11-01T00:49:02.591Z,97.00
2017-11-01T00:51:28.797Z,97.00
2017-11-01T00:53:55.047Z,96.90
2017-11-01T00:56:21.298Z,96.90
2017-11-01T00:58:48.286Z,96.90
2017-11-01T01:01:14.530Z,96.90
2017-11-01T01:03:40.758Z,96.90
2017-11-01T01:06:06.982Z,97.00
2017-11-01T01:08:33.248Z,97.00
2017-11-01T01:10:59.498Z,97.00
2017-11-01T01:13:25.743Z,97.00
2017-11-01T01:15:51.990Z,97.10
2017-11-01T01:18:18.231Z,97.10
2017-11-01T01:20:44.470Z,97.20
2017-11-01T01:23:11.183Z,97.40
2017-11-01T01:25:37.418Z,97.30
2017-11-01T01:28:03.669Z,97.30
2017-11-01T01:30:30.667Z,97.20
2017-11-01T01:32:56.908Z,97.20
2017-11-01T01:35:23.155Z,97.10
2017-11-01T01:37:49.413Z,97.10
2017-11-01T01:40:16.426Z,97.30
2017-11-01T01:42:42.792Z,97.20
2017-11-01T01:45:09.016Z,97.30
2017-11-01T01:47:35.265Z,97.30
2017-11-01T01:50:01.762Z,97.30
2017-11-01T01:52:28.720Z,97.40
2017-11-01T01:54:54.960Z,97.40
2017-11-01T01:57:21.347Z,97.50
2017-11-01T01:59:47.689Z,97.60
2017-11-01T02:02:14.709Z,97.70
2017-11-01T02:04:41.032Z,97.70
2017-11-01T02:07:07.488Z,97.80
2017-11-01T02:09:33.723Z,97.80
2017-11-01T02:12:00.703Z,98.00
2017-11-01T02:14:27.016Z,97.90
2017-11-01T02:16:53.268Z,97.90
2017-11-01T02:19:19.566Z,98.00
2017-11-01T02:21:46.563Z,97.90
2017-11-01T02:24:12.855Z,97.90
2017-11-01T02:26:39.133Z,97.90
2017-11-01T02:29:05.447Z,97.90
2017-11-01T02:31:31.716Z,97.80
2017-11-01T02:33:58.732Z,97.80
2017-11-01T02:36:24.987Z,97.80
2017-11-01T02:38:52.012Z,97.90
2017-11-01T02:41:19.149Z,97.80
2017-11-01T02:43:45.491Z,97.80
2017-11-01T02:46:11.763Z,97.80
2017-11-01T02:48:38.068Z,97.80
2017-11-01T02:51:05.071Z,97.50
2017-11-01T02:53:31.358Z,97.50
2017-11-01T02:55:57.639Z,97.70
2017-11-01T02:58:25.806Z,97.80
2017-11-01T03:00:52.073Z,97.70
2017-11-01T03:03:18.282Z,97.70
2017-11-01T03:05:45.239Z,97.70
2017-11-01T03:08:12.257Z,97.70
2017-11-01T03:10:38.544Z,97.70
2017-11-01T03:13:04.844Z,97.80
2017-11-01T03:15:31.132Z,97.90
2017-11-01T03:17:57.402Z,97.90
2017-11-01T03:20:23.717Z,97.90
2017-11-01T03:22:50.738Z,97.90
2017-11-01T03:25:17.037Z,97.90
2017-11-01T03:27:43.314Z,97.90
2017-11-01T03:30:10.321Z,97.80
2017-11-01T03:32:36.523Z,97.80
2017-11-01T03:35:02.820Z,97.90
2017-11-01T03:37:29.849Z,98.00
2017-11-01T03:39:56.128Z,98.00
2017-11-01T03:42:22.454Z,98.00
2017-11-01T03:44:48.740Z,98.00
2017-11-01T03:47:15.763Z,98.20
2017-11-01T03:49:42.077Z,98.20
2017-11-01T03:52:08.345Z,98.20
2017-11-01T03:54:35.393Z,98.20
2017-11-01T03:57:02.445Z,98.20
2017-11-01T03:59:29.491Z,98.20
2017-11-01T04:01:56.499Z,98.20
2017-11-01T04:04:22.769Z,98.20
2017-11-01T04:06:49.053Z,98.10
2017-11-01T04:09:15.302Z,98.20
2017-11-01T04:11:42.415Z,98.20
2017-11-01T04:14:08.757Z,98.20
2017-11-01T04:16:35.015Z,98.10
2017-11-01T04:19:08.229Z,97.90
2017-11-01T04:21:37.508Z,97.90
2017-11-01T04:24:04.515Z,97.90
2017-11-01T04:26:30.797Z,97.90
2017-11-01T04:28:57.067Z,98.10
2017-11-01T04:31:23.338Z,98.10
2017-11-01T04:33:49.585Z,98.10
2017-11-01T04:36:15.869Z,98.10
2017-11-01T04:38:42.145Z,98.10
2017-11-01T04:41:08.494Z,98.10
2017-11-01T04:43:34.802Z,98.00
2017-11-01T04:46:01.062Z,97.90
2017-11-01T04:48:27.326Z,97.90
2017-11-01T04:50:54.354Z,97.80
2017-11-01T04:53:20.604Z,97.80
2017-11-01T04:55:46.880Z,97.70
2017-11-01T04:58:13.176Z,97.70
2017-11-01T05:00:43.027Z,97.70
2017-11-01T05:03:11.234Z,97.70
2017-11-01T05:05:38.185Z,97.60
2017-11-01T05:08:05.189Z,98.60
2017-11-01T05:10:33.361Z,98.60
2017-11-01T05:13:02.470Z,98.70
2017-11-01T05:15:28.743Z,98.40
2017-11-01T05:17:57.836Z,97.10
2017-11-01T05:20:24.092Z,95.70
2017-11-01T05:22:50.528Z,94.70
2017-11-01T05:25:23.146Z,93.90
2017-11-01T05:27:50.156Z,92.80
2017-11-01T05:30:16.444Z,92.70
2017-11-01T05:32:42.722Z,91.60
2017-11-01T05:35:09.020Z,90.90
2017-11-01T05:37:35.318Z,90.70
2017-11-01T05:40:01.597Z,90.80
2017-11-01T05:42:27.895Z,90.60
2017-11-01T05:44:54.177Z,91.00
2017-11-01T05:47:21.221Z,91.50
2017-11-01T05:49:47.498Z,91.40
2017-11-01T05:52:13.795Z,91.40
2017-11-01T05:54:40.802Z,92.90
2017-11-01T05:57:07.339Z,92.80
2017-11-01T05:59:33.674Z,93.50
2017-11-01T06:01:59.988Z,92.90
2017-11-01T06:04:26.253Z,91.80
2017-11-01T06:06:53.282Z,89.90
2017-11-01T06:09:19.569Z,89.90
2017-11-01T06:11:45.858Z,88.90
2017-11-01T06:14:12.898Z,83.80
2017-11-01T06:16:39.924Z,83.70
2017-11-01T06:19:06.202Z,83.70
2017-11-01T06:21:32.488Z,84.40
2017-11-01T06:23:59.435Z,86.10
2017-11-01T06:26:26.553Z,87.10
2017-11-01T06:28:53.040Z,87.10
2017-11-01T06:31:19.728Z,87.60
2017-11-01T06:33:46.013Z,88.30
2017-11-01T06:36:13.055Z,87.00
2017-11-01T06:38:40.288Z,87.10
2017-11-01T06:41:06.662Z,87.10
2017-11-01T06:43:33.716Z,89.90
2017-11-01T06:46:00.002Z,89.90
2017-11-01T06:48:26.680Z,90.80
2017-11-01T06:50:52.950Z,91.70
2017-11-01T06:53:19.958Z,92.30
2017-11-01T06:55:46.205Z,92.20
2017-11-01T06:58:12.487Z,92.50
2017-11-01T07:00:38.752Z,92.60
2017-11-01T07:03:05.045Z,92.50
2017-11-01T07:05:31.293Z,92.60
2017-11-01T07:07:57.565Z,92.50
2017-11-01T07:10:24.572Z,92.70
2017-11-01T07:12:50.851Z,92.80
2017-11-01T07:15:17.127Z,93.20
2017-11-01T07:17:43.572Z,93.10
2017-11-01T07:20:09.848Z,93.30
2017-11-01T07:22:36.141Z,93.50
2017-11-01T07:25:03.191Z,93.60
2017-11-01T07:27:37.111Z,93.60
2017-11-01T07:30:04.120Z,93.60
2017-11-01T07:32:30.492Z,93.60
2017-11-01T07:34:57.301Z,93.60
2017-11-01T07:37:23.768Z,93.60
2017-11-01T07:39:50.192Z,94.00
2017-11-01T07:42:16.497Z,93.60
2017-11-01T07:44:42.761Z,93.50
2017-11-01T07:47:09.002Z,93.40
2017-11-01T07:49:37.425Z,93.40
2017-11-01T07:52:05.163Z,93.50
2017-11-01T07:54:31.404Z,93.60
2017-11-01T07:56:57.643Z,93.70
2017-11-01T07:59:24.653Z,93.70
2017-11-01T08:01:51.631Z,93.80
2017-11-01T08:04:17.921Z,93.80
2017-11-01T08:06:44.186Z,93.90
2017-11-01T08:09:10.444Z,94.00
2017-11-01T08:11:36.676Z,94.10
2017-11-01T08:14:02.965Z,94.10
2017-11-01T08:16:29.227Z,94.20
2017-11-01T08:18:55.488Z,94.30
2017-11-01T08:21:21.726Z,94.30
2017-11-01T08:23:48.049Z,94.30
2017-11-01T08:26:14.328Z,94.40
2017-11-01T08:28:41.316Z,94.60
2017-11-01T08:31:07.659Z,94.60
2017-11-01T08:33:33.938Z,94.50
2017-11-01T08:36:00.184Z,94.30
2017-11-01T08:38:26.437Z,94.40
2017-11-01T08:40:52.803Z,94.40
2017-11-01T08:43:19.786Z,94.60
2017-11-01T08:45:46.075Z,94.60
2017-11-01T08:48:12.347Z,94.70
2017-11-01T08:50:38.647Z,94.90
2017-11-01T08:53:04.907Z,94.80
2017-11-01T08:55:32.335Z,94.90
2017-11-01T08:57:59.496Z,95.20
2017-11-01T09:00:25.857Z,95.20
2017-11-01T09:02:53.200Z,95.20
2017-11-01T09:05:19.639Z,95.20
2017-11-01T09:07:45.900Z,95.30
2017-11-01T09:10:12.195Z,95.30
2017-11-01T09:12:38.429Z,95.30
2017-11-01T09:15:04.709Z,95.30
2017-11-01T09:17:30.957Z,95.40
2017-11-01T09:19:57.239Z,95.20
2017-11-01T09:22:24.266Z,95.00
2017-11-01T09:24:50.514Z,95.00
2017-11-01T09:27:17.527Z,94.90
2017-11-01T09:29:43.790Z,94.80
2017-11-01T09:32:10.812Z,95.00
2017-11-01T09:34:37.118Z,95.00
2017-11-01T09:37:03.857Z,95.20
2017-11-01T09:39:30.103Z,95.40
2017-11-01T09:41:56.440Z,95.60
2017-11-01T09:44:22.706Z,95.80
2017-11-01T09:46:48.936Z,95.90
2017-11-01T09:49:15.201Z,95.90
2017-11-01T09:51:41.474Z,96.00
2017-11-01T09:54:07.726Z,95.90
2017-11-01T09:56:33.985Z,96.00
2017-11-01T09:59:00.247Z,96.20
2017-11-01T10:01:27.283Z,96.30
2017-11-01T10:03:54.285Z,96.40
2017-11-01T10:06:20.567Z,96.30
2017-11-01T10:08:47.543Z,96.30
2017-11-01T10:11:13.814Z,96.40
2017-11-01T10:13:40.043Z,96.50
2017-11-01T10:16:06.351Z,96.50
2017-11-01T10:18:33.326Z,96.50
2017-11-01T10:21:00.367Z,96.50
2017-11-01T10:23:27.359Z,96.60
2017-11-01T10:25:53.646Z,96.60
2017-11-01T10:28:20.649Z,96.60
2017-11-01T10:30:46.926Z,96.60
2017-11-01T10:33:13.936Z,96.00
2017-11-01T10:35:40.185Z,96.00
2017-11-01T10:38:07.199Z,95.50
2017-11-01T10:40:33.461Z,95.50
2017-11-01T10:43:00.540Z,95.00
2017-11-01T10:45:26.822Z,95.00
2017-11-01T10:47:53.117Z,94.90
2017-11-01T10:50:19.407Z,94.90
2017-11-01T10:52:46.914Z,94.80
2017-11-01T10:55:13.320Z,94.90
2017-11-01T10:57:40.711Z,94.80
2017-11-01T11:00:08.558Z,94.80
2017-11-01T11:02:35.048Z,94.80
2017-11-01T11:05:01.522Z,94.40
2017-11-01T11:07:27.998Z,93.90
2017-11-01T11:09:55.012Z,94.20
2017-11-01T11:12:21.295Z,94.20
2017-11-01T11:14:47.554Z,94.50
2017-11-01T11:17:14.894Z,94.70
2017-11-01T11:19:41.368Z,94.30
2017-11-01T11:22:07.657Z,94.40
2017-11-01T11:24:35.924Z,93.60
2017-11-01T11:27:02.487Z,93.60
2017-11-01T11:29:29.006Z,93.70
2017-11-01T11:31:55.307Z,93.90
2017-11-01T11:34:21.667Z,94.00
2017-11-01T11:36:49.016Z,93.90
2017-11-01T11:39:15.489Z,93.70
2017-11-01T11:41:43.319Z,93.90
2017-11-01T11:44:09.778Z,94.20
2017-11-01T11:46:36.066Z,94.30
2017-11-01T11:49:03.548Z,94.30
2017-11-01T11:51:30.061Z,94.40
2017-11-01T11:53:58.555Z,94.40
2017-11-01T11:56:24.975Z,94.50
2017-11-01T11:58:52.350Z,94.50
2017-11-01T12:01:20.069Z,94.70
2017-11-01T12:03:47.806Z,94.70
2017-11-01T12:06:15.345Z,94.70
2017-11-01T12:08:43.280Z,94.80
2017-11-01T12:11:10.821Z,94.80
2017-11-01T12:13:37.345Z,94.90
2017-11-01T12:16:03.641Z,94.90
2017-11-01T12:18:30.990Z,94.90
2017-11-01T12:20:58.540Z,94.90
2017-11-01T12:23:25.037Z,94.90
2017-11-01T12:25:51.307Z,94.90
2017-11-01T12:28:18.365Z,94.80
2017-11-01T12:30:44.622Z,94.80
2017-11-01T12:33:10.958Z,94.70
2017-11-01T12:35:37.249Z,94.40
2017-11-01T12:38:05.378Z,94.90
2017-11-01T12:40:31.873Z,94.80
2017-11-01T12:42:58.194Z,94.90
2017-11-01T12:45:24.495Z,94.90
2017-11-01T12:47:52.692Z,94.20
2017-11-01T12:50:20.460Z,94.20
2017-11-01T12:52:47.974Z,94.50
2017-11-01T12:55:15.380Z,94.70
2017-11-01T12:57:43.018Z,93.30
2017-11-01T13:00:09.468Z,92.30
2017-11-01T13:02:36.760Z,92.10
2017-11-01T13:05:05.282Z,92.00
2017-11-01T13:07:33.315Z,92.20
2017-11-01T13:09:59.767Z,92.50
2017-11-01T13:12:27.195Z,92.70
2017-11-01T13:14:53.691Z,92.90
2017-11-01T13:17:20.048Z,93.00
2017-11-01T13:19:47.433Z,93.30
2017-11-01T13:22:14.018Z,93.50
2017-11-01T13:24:40.301Z,93.70
2017-11-01T13:27:07.368Z,94.00
2017-11-01T13:29:33.659Z,94.00
2017-11-01T13:31:59.923Z,94.20
2017-11-01T13:34:26.216Z,94.50
2017-11-01T13:36:52.869Z,94.60
2017-11-01T13:39:21.573Z,94.90
2017-11-01T13:41:48.003Z,94.90
2017-11-01T13:44:15.589Z,95.00
2017-11-01T13:46:42.628Z,95.20
2017-11-01T13:49:08.929Z,95.20
2017-11-01T13:51:35.162Z,95.30
2017-11-01T13:54:01.478Z,95.40
2017-11-01T13:56:27.736Z,95.40
2017-11-01T13:58:53.997Z,95.50
2017-11-01T14:01:20.232Z,95.60
2017-11-01T14:03:46.503Z,95.70
2017-11-01T14:06:12.759Z,95.60
2017-11-01T14:08:39.072Z,95.50
2017-11-01T14:11:05.321Z,95.30
2017-11-01T14:13:31.665Z,95.10
2017-11-01T14:15:57.951Z,95.10
2017-11-01T14:18:24.210Z,95.50
2017-11-01T14:20:50.495Z,95.30
2017-11-01T14:23:16.764Z,95.40
2017-11-01T14:25:43.061Z,95.40
2017-11-01T14:28:09.339Z,95.40
2017-11-01T14:30:35.600Z,95.10
2017-11-01T14:33:01.859Z,95.10
2017-11-01T14:35:28.183Z,94.80
2017-11-01T14:37:54.451Z,94.80
2017-11-01T14:40:20.739Z,94.90
2017-11-01T14:42:47.042Z,95.00
2017-11-01T14:45:13.310Z,95.20
2017-11-01T14:47:39.561Z,95.30
2017-11-01T14:50:05.906Z,95.50
2017-11-01T14:52:32.900Z,95.60
2017-11-01T14:54:59.161Z,95.60
2017-11-01T14:57:25.422Z,95.60
2017-11-01T14:59:51.687Z,95.60
2017-11-01T15:02:17.956Z,95.70
2017-11-01T15:04:44.976Z,96.00
2017-11-01T15:07:11.230Z,96.00
2017-11-01T15:09:38.187Z,96.10
2017-11-01T15:12:04.418Z,96.10
2017-11-01T15:14:30.709Z,96.10
2017-11-01T15:16:57.051Z,96.00
2017-11-01T15:19:23.479Z,95.90
2017-11-01T15:21:50.513Z,96.20
2017-11-01T15:24:16.918Z,96.10
2017-11-01T15:26:43.240Z,95.50
2017-11-01T15:29:09.815Z,95.40
2017-11-01T15:31:36.087Z,95.10
2017-11-01T15:34:02.397Z,95.60
2017-11-01T15:36:28.670Z,95.50
2017-11-01T15:38:55.686Z,95.80
2017-11-01T15:41:22.083Z,95.80
2017-11-01T15:43:49.119Z,95.80
2017-11-01T15:46:15.470Z,95.70
2017-11-01T15:48:43.035Z,95.90
2017-11-01T15:51:09.350Z,95.80
2017-11-01T15:53:36.361Z,95.70
2017-11-01T15:56:02.698Z,95.60
2017-11-01T15:58:28.974Z,95.70
2017-11-01T16:00:55.235Z,95.80
2017-11-01T16:03:21.523Z,95.90
2017-11-01T16:05:47.800Z,96.00
2017-11-01T16:08:14.080Z,96.20
2017-11-01T16:10:40.753Z,96.50
2017-11-01T16:13:06.995Z,96.50
2017-11-01T16:15:33.276Z,96.60
2017-11-01T16:17:59.534Z,96.70
2017-11-01T16:20:25.800Z,96.80
2017-11-01T16:22:52.096Z,96.80
2017-11-01T16:25:18.466Z,96.70
2017-11-01T16:27:45.465Z,96.80
2017-11-01T16:30:11.757Z,96.70
2017-11-01T16:32:38.061Z,96.80
2017-11-01T16:35:05.104Z,97.00
2017-11-01T16:37:31.369Z,96.70
2017-11-01T16:39:57.637Z,96.80
2017-11-01T16:42:24.027Z,96.80
2017-11-01T16:44:50.333Z,96.80
2017-11-01T16:47:17.390Z,96.90
2017-11-01T16:49:43.694Z,96.90
2017-11-01T16:52:10.906Z,97.10
2017-11-01T16:54:37.396Z,97.10
2017-11-01T16:57:03.733Z,97.20
2017-11-01T16:59:30.215Z,97.20
2017-11-01T17:01:57.353Z,97.40
2017-11-01T17:04:23.693Z,97.40
2017-11-01T17:06:51.239Z,97.50
2017-11-01T17:09:17.695Z,97.60
2017-11-01T17:11:44.044Z,97.60
2017-11-01T17:14:10.412Z,97.50
2017-11-01T17:16:36.979Z,97.60
2017-11-01T17:19:03.336Z,97.70
2017-11-01T17:21:29.676Z,98.00
2017-11-01T17:23:56.070Z,97.70
2017-11-01T17:26:22.428Z,97.70
2017-11-01T17:28:48.745Z,97.70
2017-11-01T17:31:15.786Z,97.80
2017-11-01T17:33:42.079Z,97.70
2017-11-01T17:36:08.470Z,97.80
2017-11-01T17:38:41.862Z,97.80
2017-11-01T17:41:08.353Z,97.90
2017-11-01T17:43:34.639Z,98.00
2017-11-01T17:46:00.923Z,98.10
2017-11-01T17:48:27.325Z,98.00
2017-11-01T17:50:53.725Z,98.10
2017-11-01T17:53:20.059Z,98.20
2017-11-01T17:55:46.423Z,98.30
2017-11-01T17:58:12.860Z,98.50
2017-11-01T18:00:39.289Z,98.60
2017-11-01T18:03:06.769Z,98.70
2017-11-01T18:05:33.897Z,98.80
2017-11-01T18:08:00.202Z,98.70
2017-11-01T18:10:26.593Z,98.70
2017-11-01T18:12:52.977Z,98.70
2017-11-01T18:15:19.326Z,98.70
2017-11-01T18:17:46.426Z,98.60
2017-11-01T18:20:12.768Z,98.60
2017-11-01T18:22:39.255Z,98.70
2017-11-01T18:25:06.332Z,98.80
2017-11-01T18:27:32.683Z,98.80
2017-11-01T18:29:59.045Z,98.80
2017-11-01T18:32:26.227Z,98.70
2017-11-01T18:34:52.548Z,98.70
2017-11-01T18:37:18.913Z,98.70
2017-11-01T18:39:45.228Z,98.70
2017-11-01T18:42:11.641Z,98.70
2017-11-01T18:44:37.974Z,98.80
2017-11-01T18:47:04.351Z,98.80
2017-11-01T18:49:30.803Z,98.70
2017-11-01T18:51:57.286Z,98.60
2017-11-01T18:54:23.658Z,98.60
2017-11-01T18:56:50.050Z,98.70
2017-11-01T18:59:16.443Z,98.80
2017-11-01T19:01:43.530Z,98.80
2017-11-01T19:04:09.894Z,98.80
2017-11-01T19:06:36.227Z,98.80
2017-11-01T19:09:02.675Z,98.80
2017-11-01T19:11:30.307Z,98.70
2017-11-01T19:13:57.327Z,98.70
2017-11-01T19:16:24.409Z,99.20
2017-11-01T19:18:50.813Z,98.80
2017-11-01T19:21:17.165Z,99.00
2017-11-01T19:23:44.242Z,99.10
2017-11-01T19:26:10.734Z,99.30
2017-11-01T19:28:37.123Z,99.40
2017-11-01T19:31:03.473Z,99.30
2017-11-01T19:33:29.898Z,99.30
2017-11-01T19:35:56.270Z,99.30
2017-11-01T19:38:22.658Z,99.20
2017-11-01T19:40:49.072Z,99.40
2017-11-01T19:43:15.461Z,99.10
2017-11-01T19:45:41.841Z,99.00
2017-11-01T19:48:08.177Z,99.00
2017-11-01T19:50:34.535Z,98.80
2017-11-01T19:53:04.642Z,98.80
2017-11-01T19:55:31.139Z,98.80
2017-11-01T19:57:57.649Z,99.00
2017-11-01T20:00:24.715Z,98.90
2017-11-01T20:02:51.065Z,98.90
2017-11-01T20:05:17.732Z,98.80
2017-11-01T20:07:44.252Z,98.70
2017-11-01T20:10:10.620Z,98.70
2017-11-01T20:12:37.746Z,98.60
2017-11-01T20:15:04.739Z,98.60
2017-11-01T20:17:32.121Z,98.90
2017-11-01T20:19:59.083Z,98.90
2017-11-01T20:22:25.567Z,98.90
2017-11-01T20:24:52.273Z,99.00
2017-11-01T20:27:19.393Z,99.00
2017-11-01T20:29:45.799Z,99.00
2017-11-01T20:32:12.194Z,99.00
2017-11-01T20:34:39.299Z,99.00
2017-11-01T20:37:05.633Z,99.00
2017-11-01T20:39:32.184Z,99.10
2017-11-01T20:41:58.640Z,99.10
2017-11-01T20:44:25.778Z,98.90
2017-11-01T20:46:52.895Z,98.90
2017-11-01T20:49:19.284Z,98.90
2017-11-01T20:51:45.618Z,98.90
2017-11-01T20:54:11.982Z,99.00
2017-11-01T20:56:38.338Z,98.90
2017-11-01T20:59:05.472Z,98.90
2017-11-01T21:01:32.141Z,98.90
2017-11-01T21:03:59.217Z,98.90
2017-11-01T21:06:25.578Z,98.90
2017-11-01T21:08:51.933Z,98.80
2017-11-01T21:11:18.972Z,98.70
2017-11-01T21:13:45.330Z,98.70
2017-11-01T21:16:11.697Z,98.90
2017-11-01T21:18:38.041Z,98.80
2017-11-01T21:21:04.397Z,98.80
2017-11-01T21:23:31.555Z,98.70
2017-11-01T21:25:58.014Z,98.70
2017-11-01T21:28:25.460Z,98.70
2017-11-01T21:30:52.688Z,98.70
2017-11-01T21:33:19.845Z,99.00
2017-11-01T21:35:46.885Z,98.70
2017-11-01T21:38:13.914Z,98.70
2017-11-01T21:40:40.256Z,98.70
2017-11-01T21:43:07.387Z,98.60
2017-11-01T21:45:33.752Z,98.60
2017-11-01T21:48:00.060Z,98.90
2017-11-01T21:50:27.100Z,98.60
2017-11-01T21:52:53.353Z,98.60
2017-11-01T21:55:19.661Z,98.60
2017-11-01T21:57:46.722Z,98.90
2017-11-01T22:00:13.043Z,98.90
2017-11-01T22:02:40.476Z,98.90
2017-11-01T22:05:06.757Z,98.90
2017-11-01T22:07:33.020Z,98.90
2017-11-01T22:09:59.347Z,98.80
2017-11-01T22:12:25.619Z,98.80
2017-11-01T22:14:52.631Z,98.90
2017-11-01T22:17:18.905Z,98.80
2017-11-01T22:19:45.163Z,98.90
2017-11-01T22:22:11.476Z,98.90
2017-11-01T22:24:37.724Z,98.80
2017-11-01T22:27:03.987Z,98.80
2017-11-01T22:29:30.983Z,98.80
2017-11-01T22:31:57.239Z,98.70
2017-11-01T22:34:23.488Z,98.80
2017-11-01T22:36:50.516Z,98.80
2017-11-01T22:39:17.613Z,98.80
2017-11-01T22:41:44.819Z,98.80
2017-11-01T22:44:11.395Z,98.80
2017-11-01T22:46:37.654Z,98.80
2017-11-01T22:49:03.927Z,98.80
2017-11-01T22:51:30.934Z,98.90
2017-11-01T22:53:57.224Z,98.80
2017-11-01T22:56:23.652Z,98.80
2017-11-01T22:58:49.953Z,98.80
2017-11-01T23:01:16.969Z,98.60
2017-11-01T23:03:43.226Z,98.60
2017-11-01T23:06:10.237Z,98.70
2017-11-01T23:08:36.472Z,98.70
2017-11-01T23:11:02.797Z,98.70
2017-11-01T23:13:29.977Z,98.60
2017-11-01T23:15:56.409Z,98.60
2017-11-01T23:18:24.562Z,98.70
2017-11-01T23:20:50.815Z,98.70
2017-11-01T23:23:17.280Z,98.70
2017-11-01T23:25:43.866Z,98.80
2017-11-01T23:28:10.845Z,98.80
2017-11-01T23:30:37.077Z,98.80
2017-11-01T23:33:03.669Z,98.70
2017-11-01T23:35:29.894Z,98.70
2017-11-01T23:37:56.415Z,98.70
2017-11-01T23:40:22.654Z,98.60
2017-11-01T23:42:49.708Z,98.70
2017-11-01T23:45:16.717Z,98.60
2017-11-01T23:47:42.960Z,98.60
2017-11-01T23:50:09.192Z,98.60
2017-11-01T23:52:36.361Z,98.70
2017-11-01T23:55:03.366Z,98.80
2017-11-01T23:57:29.674Z,98.80
2017-11-01T23:59:55.961Z,98.80
